sensor_id;sensor_type;location;lat;lon;timestamp;pressure;altitude;pressure_sealevel;temperature;humidity
32081;BME280;18593;51.426;7.030;2023-07-31T00:00:53;100070.69;;;17.68;88.26
32081;BME280;18593;51.426;7.030;2023-07-31T00:03:21;100065.00;;;17.60;88.72
32081;BME280;18593;51.426;7.030;2023-07-31T00:05:48;100061.50;;;17.64;88.90
32081;BME280;18593;51.426;7.030;2023-07-31T00:08:16;100063.41;;;17.59;88.84
32081;BME280;18593;51.426;7.030;2023-07-31T00:10:43;100059.34;;;17.56;88.90
32081;BME280;18593;51.426;7.030;2023-07-31T00:13:10;100046.66;;;17.51;89.78
32081;BME280;18593;51.426;7.030;2023-07-31T00:15:39;100064.72;;;17.51;89.71
32081;BME280;18593;51.426;7.030;2023-07-31T00:18:06;100064.72;;;17.51;90.00
32081;BME280;18593;51.426;7.030;2023-07-31T00:20:33;100057.41;;;17.41;91.02
32081;BME280;18593;51.426;7.030;2023-07-31T00:23:01;100062.28;;;17.44;91.33
32081;BME280;18593;51.426;7.030;2023-07-31T00:25:28;100058.50;;;17.45;91.02
32081;BME280;18593;51.426;7.030;2023-07-31T00:27:55;100052.59;;;17.48;90.28
32081;BME280;18593;51.426;7.030;2023-07-31T00:30:23;100050.41;;;17.45;91.03
32081;BME280;18593;51.426;7.030;2023-07-31T00:32:52;100052.84;;;17.47;90.52
32081;BME280;18593;51.426;7.030;2023-07-31T00:35:19;100056.63;;;17.46;90.55
32081;BME280;18593;51.426;7.030;2023-07-31T00:37:47;100052.84;;;17.42;90.86
32081;BME280;18593;51.426;7.030;2023-07-31T00:40:14;100045.28;;;17.39;91.52
32081;BME280;18593;51.426;7.030;2023-07-31T00:42:42;100047.19;;;17.38;91.47
32081;BME280;18593;51.426;7.030;2023-07-31T00:45:09;100049.88;;;17.38;91.56
32081;BME280;18593;51.426;7.030;2023-07-31T00:47:37;100052.59;;;17.48;90.78
32081;BME280;18593;51.426;7.030;2023-07-31T00:50:07;100057.72;;;17.45;91.06
32081;BME280;18593;51.426;7.030;2023-07-31T00:52:36;100043.94;;;17.46;90.78
32081;BME280;18593;51.426;7.030;2023-07-31T00:55:04;100055.31;;;17.54;90.33
32081;BME280;18593;51.426;7.030;2023-07-31T00:57:32;100039.66;;;17.50;89.85
32081;BME280;18593;51.426;7.030;2023-07-31T01:00:00;100048.81;;;17.55;89.33
32081;BME280;18593;51.426;7.030;2023-07-31T01:02:29;100043.44;;;17.49;89.38
32081;BME280;18593;51.426;7.030;2023-07-31T01:04:56;100047.22;;;17.54;89.41
32081;BME280;18593;51.426;7.030;2023-07-31T01:07:33;100041.53;;;17.55;88.79
32081;BME280;18593;51.426;7.030;2023-07-31T01:10:08;100039.94;;;17.54;89.33
32081;BME280;18593;51.426;7.030;2023-07-31T01:12:38;100045.59;;;17.53;89.03
32081;BME280;18593;51.426;7.030;2023-07-31T01:15:09;100047.19;;;17.48;89.51
32081;BME280;18593;51.426;7.030;2023-07-31T01:17:37;100050.97;;;17.42;89.96
32081;BME280;18593;51.426;7.030;2023-07-31T01:20:10;100040.19;;;17.47;89.78
32081;BME280;18593;51.426;7.030;2023-07-31T01:23:08;100041.25;;;17.51;89.28
32081;BME280;18593;51.426;7.030;2023-07-31T01:26:05;100046.13;;;17.55;88.68
32081;BME280;18593;51.426;7.030;2023-07-31T01:28:55;100045.59;;;17.53;88.70
32081;BME280;18593;51.426;7.030;2023-07-31T01:31:24;100055.56;;;17.52;88.53
32081;BME280;18593;51.426;7.030;2023-07-31T01:33:57;100051.50;;;17.44;89.21
32081;BME280;18593;51.426;7.030;2023-07-31T01:36:25;100046.13;;;17.49;88.79
32081;BME280;18593;51.426;7.030;2023-07-31T01:38:57;100052.31;;;17.50;88.21
32081;BME280;18593;51.426;7.030;2023-07-31T01:41:26;100048.28;;;17.42;88.62
32081;BME280;18593;51.426;7.030;2023-07-31T01:43:53;100047.69;;;17.30;88.55
32081;BME280;18593;51.426;7.030;2023-07-31T01:46:20;100036.91;;;17.25;89.06
32081;BME280;18593;51.426;7.030;2023-07-31T01:48:48;100032.34;;;17.31;89.26
32081;BME280;18593;51.426;7.030;2023-07-31T01:51:15;100031.53;;;17.40;89.20
32081;BME280;18593;51.426;7.030;2023-07-31T01:53:42;100024.53;;;17.39;88.16
32081;BME280;18593;51.426;7.030;2023-07-31T01:56:09;100028.31;;;17.38;88.64
32081;BME280;18593;51.426;7.030;2023-07-31T01:58:38;100025.06;;;17.41;88.58
32081;BME280;18593;51.426;7.030;2023-07-31T02:01:06;100026.44;;;17.39;88.11
32081;BME280;18593;51.426;7.030;2023-07-31T02:03:34;100035.31;;;17.34;88.34
32081;BME280;18593;51.426;7.030;2023-07-31T02:06:01;100029.34;;;17.32;88.20
32081;BME280;18593;51.426;7.030;2023-07-31T02:08:28;100027.22;;;17.29;88.76
32081;BME280;18593;51.426;7.030;2023-07-31T02:10:55;100025.34;;;17.40;88.29
32081;BME280;18593;51.426;7.030;2023-07-31T02:13:23;100013.47;;;17.46;87.51
32081;BME280;18593;51.426;7.030;2023-07-31T02:15:52;100013.22;;;17.42;87.13
32081;BME280;18593;51.426;7.030;2023-07-31T02:18:20;100002.97;;;17.39;86.84
32081;BME280;18593;51.426;7.030;2023-07-31T02:20:50;100009.44;;;17.33;87.76
32081;BME280;18593;51.426;7.030;2023-07-31T02:23:18;100006.75;;;17.38;87.69
32081;BME280;18593;51.426;7.030;2023-07-31T02:25:45;100006.47;;;17.40;87.60
32081;BME280;18593;51.426;7.030;2023-07-31T02:28:13;100014.56;;;17.35;86.26
32081;BME280;18593;51.426;7.030;2023-07-31T02:30:44;100008.63;;;17.33;86.50
32081;BME280;18593;51.426;7.030;2023-07-31T02:33:14;100012.38;;;17.37;86.69
32081;BME280;18593;51.426;7.030;2023-07-31T02:35:42;100003.50;;;17.31;86.25
32081;BME280;18593;51.426;7.030;2023-07-31T02:38:09;100015.63;;;17.34;86.29
32081;BME280;18593;51.426;7.030;2023-07-31T02:40:36;100012.13;;;17.33;86.22
32081;BME280;18593;51.426;7.030;2023-07-31T02:43:03;100005.13;;;17.37;86.16
32081;BME280;18593;51.426;7.030;2023-07-31T02:45:31;100008.63;;;17.38;85.93
32081;BME280;18593;51.426;7.030;2023-07-31T02:47:58;99993.00;;;17.35;86.01
32081;BME280;18593;51.426;7.030;2023-07-31T02:50:27;99998.09;;;17.36;86.14
32081;BME280;18593;51.426;7.030;2023-07-31T02:52:54;100000.28;;;17.39;85.66
32081;BME280;18593;51.426;7.030;2023-07-31T02:55:22;99996.50;;;17.35;85.54
32081;BME280;18593;51.426;7.030;2023-07-31T02:57:49;100002.97;;;17.29;85.36
32081;BME280;18593;51.426;7.030;2023-07-31T03:00:18;100003.75;;;17.30;85.89
32081;BME280;18593;51.426;7.030;2023-07-31T03:02:46;99990.00;;;17.31;85.53
32081;BME280;18593;51.426;7.030;2023-07-31T03:05:14;99988.13;;;17.37;85.38
32081;BME280;18593;51.426;7.030;2023-07-31T03:07:43;99984.38;;;17.33;84.83
32081;BME280;18593;51.426;7.030;2023-07-31T03:10:10;99995.41;;;17.31;85.48
32081;BME280;18593;51.426;7.030;2023-07-31T03:12:38;99988.69;;;17.34;85.87
32081;BME280;18593;51.426;7.030;2023-07-31T03:15:07;99980.88;;;17.37;85.85
32081;BME280;18593;51.426;7.030;2023-07-31T03:17:34;99983.00;;;17.35;85.27
32081;BME280;18593;51.426;7.030;2023-07-31T03:20:03;99987.88;;;17.38;85.13
32081;BME280;18593;51.426;7.030;2023-07-31T03:22:31;99980.31;;;17.40;85.73
32081;BME280;18593;51.426;7.030;2023-07-31T03:24:59;99984.38;;;17.38;85.40
32081;BME280;18593;51.426;7.030;2023-07-31T03:27:27;99988.69;;;17.39;86.06
32081;BME280;18593;51.426;7.030;2023-07-31T03:29:54;99979.25;;;17.41;85.59
32081;BME280;18593;51.426;7.030;2023-07-31T03:32:21;99976.28;;;17.38;85.70
32081;BME280;18593;51.426;7.030;2023-07-31T03:34:49;99985.72;;;17.40;86.07
32081;BME280;18593;51.426;7.030;2023-07-31T03:37:17;99974.94;;;17.35;86.18
32081;BME280;18593;51.426;7.030;2023-07-31T03:39:44;99984.38;;;17.33;86.19
32081;BME280;18593;51.426;7.030;2023-07-31T03:42:13;99977.09;;;17.33;86.72
32081;BME280;18593;51.426;7.030;2023-07-31T03:44:40;99978.97;;;17.33;86.91
32081;BME280;18593;51.426;7.030;2023-07-31T03:47:09;99976.53;;;17.36;86.70
32081;BME280;18593;51.426;7.030;2023-07-31T03:49:37;99976.28;;;17.28;86.54
32081;BME280;18593;51.426;7.030;2023-07-31T03:52:05;99970.06;;;17.27;87.16
32081;BME280;18593;51.426;7.030;2023-07-31T03:54:32;99974.38;;;17.28;87.49
32081;BME280;18593;51.426;7.030;2023-07-31T03:57:00;99979.78;;;17.23;87.13
32081;BME280;18593;51.426;7.030;2023-07-31T03:59:28;99972.75;;;17.27;87.15
32081;BME280;18593;51.426;7.030;2023-07-31T04:01:56;99968.72;;;17.30;87.36
32081;BME280;18593;51.426;7.030;2023-07-31T04:04:23;99977.91;;;17.34;87.41
32081;BME280;18593;51.426;7.030;2023-07-31T04:06:50;99968.72;;;17.35;87.23
32081;BME280;18593;51.426;7.030;2023-07-31T04:09:17;99960.91;;;17.38;86.82
32081;BME280;18593;51.426;7.030;2023-07-31T04:11:45;99969.53;;;17.40;86.92
32081;BME280;18593;51.426;7.030;2023-07-31T04:14:12;99964.16;;;17.40;87.15
32081;BME280;18593;51.426;7.030;2023-07-31T04:16:41;99967.66;;;17.46;87.36
32081;BME280;18593;51.426;7.030;2023-07-31T04:19:08;99954.16;;;17.41;87.30
32081;BME280;18593;51.426;7.030;2023-07-31T04:21:36;99951.75;;;17.34;87.10
32081;BME280;18593;51.426;7.030;2023-07-31T04:24:04;99950.66;;;17.35;87.53
32081;BME280;18593;51.426;7.030;2023-07-31T04:26:31;99956.88;;;17.36;87.88
32081;BME280;18593;51.426;7.030;2023-07-31T04:28:58;99952.28;;;17.36;87.99
32081;BME280;18593;51.426;7.030;2023-07-31T04:31:26;99953.38;;;17.40;88.44
32081;BME280;18593;51.426;7.030;2023-07-31T04:33:54;99944.47;;;17.40;88.27
32081;BME280;18593;51.426;7.030;2023-07-31T04:36:22;99948.25;;;17.39;88.13
32081;BME280;18593;51.426;7.030;2023-07-31T04:38:49;99941.25;;;17.38;88.30
32081;BME280;18593;51.426;7.030;2023-07-31T04:41:16;99940.44;;;17.37;88.24
32081;BME280;18593;51.426;7.030;2023-07-31T04:43:43;99938.00;;;17.41;88.65
32081;BME280;18593;51.426;7.030;2023-07-31T04:46:11;99945.56;;;17.44;88.55
32081;BME280;18593;51.426;7.030;2023-07-31T04:48:38;99939.34;;;17.48;87.96
32081;BME280;18593;51.426;7.030;2023-07-31T04:51:07;99937.19;;;17.40;88.35
32081;BME280;18593;51.426;7.030;2023-07-31T04:53:35;99929.38;;;17.39;88.61
32081;BME280;18593;51.426;7.030;2023-07-31T04:56:02;99935.06;;;17.42;88.51
32081;BME280;18593;51.426;7.030;2023-07-31T04:58:30;99925.06;;;17.43;88.47
32081;BME280;18593;51.426;7.030;2023-07-31T05:00:57;99936.91;;;17.47;88.61
32081;BME280;18593;51.426;7.030;2023-07-31T05:03:24;99928.56;;;17.48;89.02
32081;BME280;18593;51.426;7.030;2023-07-31T05:05:51;99925.31;;;17.46;88.93
32081;BME280;18593;51.426;7.030;2023-07-31T05:08:20;99923.69;;;17.50;89.45
32081;BME280;18593;51.426;7.030;2023-07-31T05:10:47;99927.47;;;17.55;89.08
32081;BME280;18593;51.426;7.030;2023-07-31T05:13:15;99908.06;;;17.58;89.18
32081;BME280;18593;51.426;7.030;2023-07-31T05:15:42;99909.69;;;17.59;88.65
32081;BME280;18593;51.426;7.030;2023-07-31T05:18:09;99912.91;;;17.61;88.70
32081;BME280;18593;51.426;7.030;2023-07-31T05:20:36;99911.81;;;17.57;89.07
32081;BME280;18593;51.426;7.030;2023-07-31T05:23:04;99905.09;;;17.54;89.50
32081;BME280;18593;51.426;7.030;2023-07-31T05:25:32;99909.13;;;17.51;89.18
32081;BME280;18593;51.426;7.030;2023-07-31T05:28:00;99908.63;;;17.49;89.95
32081;BME280;18593;51.426;7.030;2023-07-31T05:30:29;99904.31;;;17.48;90.00
32081;BME280;18593;51.426;7.030;2023-07-31T05:32:56;99900.00;;;17.53;89.70
32081;BME280;18593;51.426;7.030;2023-07-31T05:35:24;99900.81;;;17.48;89.60
32081;BME280;18593;51.426;7.030;2023-07-31T05:37:51;99899.16;;;17.37;90.45
32081;BME280;18593;51.426;7.030;2023-07-31T05:40:18;99905.13;;;17.39;91.54
32081;BME280;18593;51.426;7.030;2023-07-31T05:42:47;99904.03;;;17.45;91.17
32081;BME280;18593;51.426;7.030;2023-07-31T05:45:14;99897.56;;;17.46;91.46
32081;BME280;18593;51.426;7.030;2023-07-31T05:47:42;99899.44;;;17.50;90.77
32081;BME280;18593;51.426;7.030;2023-07-31T05:50:09;99888.66;;;17.50;90.32
32081;BME280;18593;51.426;7.030;2023-07-31T05:52:37;99888.38;;;17.47;91.13
32081;BME280;18593;51.426;7.030;2023-07-31T05:55:05;99880.84;;;17.49;90.81
32081;BME280;18593;51.426;7.030;2023-07-31T05:57:34;99876.53;;;17.43;91.10
32081;BME280;18593;51.426;7.030;2023-07-31T06:00:05;99870.06;;;17.49;90.80
32081;BME280;18593;51.426;7.030;2023-07-31T06:02:33;99874.66;;;17.48;90.39
32081;BME280;18593;51.426;7.030;2023-07-31T06:05:03;99870.06;;;17.49;90.44
32081;BME280;18593;51.426;7.030;2023-07-31T06:07:31;99869.78;;;17.50;90.41
32081;BME280;18593;51.426;7.030;2023-07-31T06:09:59;99859.25;;;17.54;90.49
32081;BME280;18593;51.426;7.030;2023-07-31T06:12:30;99856.03;;;17.57;90.50
32081;BME280;18593;51.426;7.030;2023-07-31T06:14:58;99856.53;;;17.64;90.69
32081;BME280;18593;51.426;7.030;2023-07-31T06:17:27;99856.81;;;17.68;90.38
32081;BME280;18593;51.426;7.030;2023-07-31T06:19:54;99860.59;;;17.72;90.40
32081;BME280;18593;51.426;7.030;2023-07-31T06:22:21;99854.13;;;17.63;89.64
32081;BME280;18593;51.426;7.030;2023-07-31T06:24:48;99868.41;;;17.63;89.71
32081;BME280;18593;51.426;7.030;2023-07-31T06:27:16;99853.56;;;17.66;90.18
32081;BME280;18593;51.426;7.030;2023-07-31T06:29:43;99860.59;;;17.67;90.26
32081;BME280;18593;51.426;7.030;2023-07-31T06:32:11;99855.22;;;17.67;90.82
32081;BME280;18593;51.426;7.030;2023-07-31T06:34:39;99859.22;;;17.69;90.95
32081;BME280;18593;51.426;7.030;2023-07-31T06:37:07;99854.94;;;17.68;91.23
32081;BME280;18593;51.426;7.030;2023-07-31T06:39:34;99858.16;;;17.70;91.00
32081;BME280;18593;51.426;7.030;2023-07-31T06:42:02;99854.38;;;17.71;91.12
32081;BME280;18593;51.426;7.030;2023-07-31T06:44:30;99853.31;;;17.72;91.68
32081;BME280;18593;51.426;7.030;2023-07-31T06:46:57;99851.97;;;17.65;92.54
32081;BME280;18593;51.426;7.030;2023-07-31T06:49:24;99857.38;;;17.55;92.79
32081;BME280;18593;51.426;7.030;2023-07-31T06:51:53;99858.19;;;17.55;92.69
32081;BME280;18593;51.426;7.030;2023-07-31T06:54:21;99859.25;;;17.54;93.34
32081;BME280;18593;51.426;7.030;2023-07-31T06:56:49;99857.38;;;17.55;93.12
32081;BME280;18593;51.426;7.030;2023-07-31T06:59:16;99865.75;;;17.58;93.43
32081;BME280;18593;51.426;7.030;2023-07-31T07:01:48;99858.16;;;17.60;93.49
32081;BME280;18593;51.426;7.030;2023-07-31T07:04:18;99861.94;;;17.64;93.39
32081;BME280;18593;51.426;7.030;2023-07-31T07:06:46;99867.34;;;17.64;93.78
32081;BME280;18593;51.426;7.030;2023-07-31T07:09:15;99868.69;;;17.62;94.00
32081;BME280;18593;51.426;7.030;2023-07-31T07:11:42;99868.41;;;17.63;94.41
32081;BME280;18593;51.426;7.030;2023-07-31T07:14:09;99859.25;;;17.64;94.70
32081;BME280;18593;51.426;7.030;2023-07-31T07:16:37;99860.63;;;17.62;95.00
32081;BME280;18593;51.426;7.030;2023-07-31T07:19:06;99853.88;;;17.59;94.57
32081;BME280;18593;51.426;7.030;2023-07-31T07:21:34;99854.66;;;17.60;95.33
32081;BME280;18593;51.426;7.030;2023-07-31T07:24:01;99856.28;;;17.56;95.72
32081;BME280;18593;51.426;7.030;2023-07-31T07:26:30;99849.00;;;17.56;95.87
32081;BME280;18593;51.426;7.030;2023-07-31T07:28:58;99853.59;;;17.61;95.81
32081;BME280;18593;51.426;7.030;2023-07-31T07:31:27;99853.59;;;17.61;96.18
32081;BME280;18593;51.426;7.030;2023-07-31T07:33:55;99851.44;;;17.63;95.99
32081;BME280;18593;51.426;7.030;2023-07-31T07:36:23;99844.69;;;17.65;95.96
32081;BME280;18593;51.426;7.030;2023-07-31T07:38:50;99852.53;;;17.62;96.15
32081;BME280;18593;51.426;7.030;2023-07-31T07:41:17;99848.47;;;17.64;95.44
32081;BME280;18593;51.426;7.030;2023-07-31T07:43:47;99839.56;;;17.64;95.46
32081;BME280;18593;51.426;7.030;2023-07-31T07:46:28;99841.75;;;17.62;96.12
32081;BME280;18593;51.426;7.030;2023-07-31T07:48:56;99836.06;;;17.63;96.48
32081;BME280;18593;51.426;7.030;2023-07-31T07:51:23;99837.38;;;17.66;96.84
32081;BME280;18593;51.426;7.030;2023-07-31T07:53:50;99839.28;;;17.60;97.59
32081;BME280;18593;51.426;7.030;2023-07-31T07:56:18;99834.44;;;17.62;97.25
32081;BME280;18593;51.426;7.030;2023-07-31T07:58:48;99832.28;;;17.64;98.19
32081;BME280;18593;51.426;7.030;2023-07-31T08:01:15;99844.41;;;17.67;97.89
32081;BME280;18593;51.426;7.030;2023-07-31T08:03:42;99837.38;;;17.66;97.14
32081;BME280;18593;51.426;7.030;2023-07-31T08:06:10;99840.09;;;17.61;96.39
32081;BME280;18593;51.426;7.030;2023-07-31T08:08:37;99833.63;;;17.57;96.57
32081;BME280;18593;51.426;7.030;2023-07-31T08:11:05;99832.81;;;17.61;96.99
32081;BME280;18593;51.426;7.030;2023-07-31T08:13:32;99836.06;;;17.58;96.58
32081;BME280;18593;51.426;7.030;2023-07-31T08:16:01;99831.47;;;17.59;97.65
32081;BME280;18593;51.426;7.030;2023-07-31T08:18:29;99821.50;;;17.59;97.33
32081;BME280;18593;51.426;7.030;2023-07-31T08:20:56;99828.78;;;17.64;97.91
32081;BME280;18593;51.426;7.030;2023-07-31T08:23:23;99823.88;;;17.71;98.51
32081;BME280;18593;51.426;7.030;2023-07-31T08:25:50;99823.09;;;17.70;98.20
32081;BME280;18593;51.426;7.030;2023-07-31T08:28:18;99823.09;;;17.70;98.30
32081;BME280;18593;51.426;7.030;2023-07-31T08:30:45;99813.38;;;17.69;97.74
32081;BME280;18593;51.426;7.030;2023-07-31T08:33:14;99816.09;;;17.64;98.01
32081;BME280;18593;51.426;7.030;2023-07-31T08:35:42;99815.28;;;17.69;97.37
32081;BME280;18593;51.426;7.030;2023-07-31T08:38:10;99812.88;;;17.67;97.07
32081;BME280;18593;51.426;7.030;2023-07-31T08:40:37;99814.22;;;17.65;97.02
32081;BME280;18593;51.426;7.030;2023-07-31T08:43:05;99811.22;;;17.66;97.93
32081;BME280;18593;51.426;7.030;2023-07-31T08:45:33;99810.41;;;17.71;97.78
32081;BME280;18593;51.426;7.030;2023-07-31T08:48:23;99810.16;;;17.72;97.70
32081;BME280;18593;51.426;7.030;2023-07-31T08:50:52;99812.59;;;17.64;97.52
32081;BME280;18593;51.426;7.030;2023-07-31T08:53:20;99808.00;;;17.64;97.06
32081;BME280;18593;51.426;7.030;2023-07-31T08:55:48;99808.31;;;17.58;97.19
32081;BME280;18593;51.426;7.030;2023-07-31T08:58:17;99821.25;;;17.50;96.65
32081;BME280;18593;51.426;7.030;2023-07-31T09:00:47;99815.84;;;17.50;97.54
32081;BME280;18593;51.426;7.030;2023-07-31T09:03:18;99814.75;;;17.51;97.63
32081;BME280;18593;51.426;7.030;2023-07-31T09:05:46;99812.63;;;17.54;98.21
32081;BME280;18593;51.426;7.030;2023-07-31T09:08:21;99819.63;;;17.55;98.57
32081;BME280;18593;51.426;7.030;2023-07-31T09:10:49;99815.84;;;17.50;98.88
32081;BME280;18593;51.426;7.030;2023-07-31T09:13:17;99813.97;;;17.51;99.58
32081;BME280;18593;51.426;7.030;2023-07-31T09:15:46;99813.69;;;17.58;99.71
32081;BME280;18593;51.426;7.030;2023-07-31T09:18:15;99809.91;;;17.59;98.93
32081;BME280;18593;51.426;7.030;2023-07-31T09:20:45;99814.50;;;17.63;98.31
32081;BME280;18593;51.426;7.030;2023-07-31T09:23:27;99810.19;;;17.62;99.51
32081;BME280;18593;51.426;7.030;2023-07-31T09:26:12;99808.28;;;17.68;100.00
32081;BME280;18593;51.426;7.030;2023-07-31T09:29:25;99807.72;;;17.66;100.00
32081;BME280;18593;51.426;7.030;2023-07-31T09:32:31;99800.69;;;17.70;100.00
32081;BME280;18593;51.426;7.030;2023-07-31T09:35:20;99809.38;;;17.67;100.00
32081;BME280;18593;51.426;7.030;2023-07-31T09:37:50;99801.28;;;17.57;99.98
32081;BME280;18593;51.426;7.030;2023-07-31T09:40:29;99798.03;;;17.65;100.00
32081;BME280;18593;51.426;7.030;2023-07-31T09:42:58;99796.69;;;17.67;99.95
32081;BME280;18593;51.426;7.030;2023-07-31T09:45:26;99787.50;;;17.73;99.87
32081;BME280;18593;51.426;7.030;2023-07-31T09:47:54;99792.91;;;17.73;100.00
32081;BME280;18593;51.426;7.030;2023-07-31T09:50:24;99795.06;;;17.77;100.00
32081;BME280;18593;51.426;7.030;2023-07-31T09:52:52;99793.97;;;17.72;99.10
32081;BME280;18593;51.426;7.030;2023-07-31T09:55:20;99786.72;;;17.73;99.58
32081;BME280;18593;51.426;7.030;2023-07-31T09:57:48;99785.59;;;17.79;99.74
32081;BME280;18593;51.426;7.030;2023-07-31T10:00:18;99785.31;;;17.81;99.64
32081;BME280;18593;51.426;7.030;2023-07-31T10:02:48;99786.97;;;17.77;99.02
32081;BME280;18593;51.426;7.030;2023-07-31T10:05:16;99788.03;;;17.75;99.38
32081;BME280;18593;51.426;7.030;2023-07-31T10:07:51;99785.06;;;17.72;99.34
32081;BME280;18593;51.426;7.030;2023-07-31T10:10:20;99782.13;;;17.73;100.00
32081;BME280;18593;51.426;7.030;2023-07-31T10:12:49;99775.91;;;17.68;100.00
32081;BME280;18593;51.426;7.030;2023-07-31T10:15:16;99784.53;;;17.70;100.00
32081;BME280;18593;51.426;7.030;2023-07-31T10:17:44;99780.50;;;17.67;100.00
32081;BME280;18593;51.426;7.030;2023-07-31T10:20:13;99775.91;;;17.73;100.00
32081;BME280;18593;51.426;7.030;2023-07-31T10:22:44;99784.00;;;17.73;100.00
32081;BME280;18593;51.426;7.030;2023-07-31T10:25:12;99782.38;;;17.72;100.00
32081;BME280;18593;51.426;7.030;2023-07-31T10:27:40;99779.69;;;17.72;100.00
32081;BME280;18593;51.426;7.030;2023-07-31T10:30:11;99784.00;;;17.68;100.00
32081;BME280;18593;51.426;7.030;2023-07-31T10:32:41;99778.34;;;17.74;100.00
32081;BME280;18593;51.426;7.030;2023-07-31T10:35:10;99778.63;;;17.73;100.00
32081;BME280;18593;51.426;7.030;2023-07-31T10:37:40;99784.53;;;17.75;100.00
32081;BME280;18593;51.426;7.030;2023-07-31T10:40:16;99769.69;;;17.78;100.00
32081;BME280;18593;51.426;7.030;2023-07-31T10:42:47;99775.91;;;17.68;100.00
32081;BME280;18593;51.426;7.030;2023-07-31T10:45:26;99774.84;;;17.64;100.00
32081;BME280;18593;51.426;7.030;2023-07-31T10:48:02;99781.81;;;17.70;100.00
32081;BME280;18593;51.426;7.030;2023-07-31T10:50:31;99779.69;;;17.72;100.00
32081;BME280;18593;51.426;7.030;2023-07-31T10:53:00;99781.28;;;17.78;100.00
32081;BME280;18593;51.426;7.030;2023-07-31T10:55:32;99781.28;;;17.83;100.00
32081;BME280;18593;51.426;7.030;2023-07-31T10:58:06;99783.44;;;17.86;100.00
32081;BME280;18593;51.426;7.030;2023-07-31T11:00:36;99785.84;;;17.88;100.00
32081;BME280;18593;51.426;7.030;2023-07-31T11:03:05;99769.09;;;17.91;100.00
32081;BME280;18593;51.426;7.030;2023-07-31T11:05:49;99769.91;;;17.96;100.00
32081;BME280;18593;51.426;7.030;2023-07-31T11:08:21;99766.09;;;18.02;100.00
32081;BME280;18593;51.426;7.030;2023-07-31T11:11:04;99770.66;;;18.02;100.00
32081;BME280;18593;51.426;7.030;2023-07-31T11:13:33;99770.94;;;18.06;100.00
32081;BME280;18593;51.426;7.030;2023-07-31T11:16:06;99761.78;;;18.01;100.00
32081;BME280;18593;51.426;7.030;2023-07-31T11:18:33;99760.13;;;18.00;100.00
32081;BME280;18593;51.426;7.030;2023-07-31T11:21:01;99763.38;;;18.02;100.00
32081;BME280;18593;51.426;7.030;2023-07-31T11:23:28;99765.78;;;18.04;100.00
32081;BME280;18593;51.426;7.030;2023-07-31T11:25:59;99761.44;;;18.13;100.00
32081;BME280;18593;51.426;7.030;2023-07-31T11:28:32;99768.69;;;18.18;100.00
32081;BME280;18593;51.426;7.030;2023-07-31T11:31:01;99771.91;;;18.20;100.00
32081;BME280;18593;51.426;7.030;2023-07-31T11:33:28;99770.63;;;18.12;100.00
32081;BME280;18593;51.426;7.030;2023-07-31T11:35:56;99770.31;;;18.14;100.00
32081;BME280;18593;51.426;7.030;2023-07-31T11:38:24;99759.78;;;18.17;100.00
32081;BME280;18593;51.426;7.030;2023-07-31T11:40:52;99754.09;;;18.19;100.00
32081;BME280;18593;51.426;7.030;2023-07-31T11:43:22;99751.91;;;18.26;100.00
32081;BME280;18593;51.426;7.030;2023-07-31T11:45:51;99753.81;;;18.25;100.00
32081;BME280;18593;51.426;7.030;2023-07-31T11:48:21;99745.72;;;18.25;100.00
32081;BME280;18593;51.426;7.030;2023-07-31T11:50:50;99752.19;;;18.24;100.00
32081;BME280;18593;51.426;7.030;2023-07-31T11:53:27;99756.22;;;18.27;100.00
32081;BME280;18593;51.426;7.030;2023-07-31T11:55:58;99757.53;;;18.30;100.00
32081;BME280;18593;51.426;7.030;2023-07-31T11:58:28;99744.88;;;18.30;100.00
32081;BME280;18593;51.426;7.030;2023-07-31T12:00:56;99740.50;;;18.34;100.00
32081;BME280;18593;51.426;7.030;2023-07-31T12:03:25;99747.78;;;18.39;100.00
32081;BME280;18593;51.426;7.030;2023-07-31T12:05:53;99745.06;;;18.39;100.00
32081;BME280;18593;51.426;7.030;2023-07-31T12:08:23;99745.31;;;18.42;100.00
32081;BME280;18593;51.426;7.030;2023-07-31T12:10:51;99753.41;;;18.42;100.00
32081;BME280;18593;51.426;7.030;2023-07-31T12:13:22;99748.81;;;18.43;100.00
32081;BME280;18593;51.426;7.030;2023-07-31T12:15:54;99749.06;;;18.46;100.00
32081;BME280;18593;51.426;7.030;2023-07-31T12:18:25;99745.28;;;18.47;100.00
32081;BME280;18593;51.426;7.030;2023-07-31T12:20:55;99754.47;;;18.46;100.00
32081;BME280;18593;51.426;7.030;2023-07-31T12:23:26;99748.06;;;18.37;100.00
32081;BME280;18593;51.426;7.030;2023-07-31T12:26:01;99744.88;;;18.30;100.00
32081;BME280;18593;51.426;7.030;2023-07-31T12:28:28;99737.84;;;18.29;100.00
32081;BME280;18593;51.426;7.030;2023-07-31T12:31:00;99740.28;;;18.31;100.00
32081;BME280;18593;51.426;7.030;2023-07-31T12:33:32;99746.50;;;18.31;100.00
32081;BME280;18593;51.426;7.030;2023-07-31T12:36:02;99737.03;;;18.28;100.00
32081;BME280;18593;51.426;7.030;2023-07-31T12:38:30;99726.50;;;18.32;100.00
32081;BME280;18593;51.426;7.030;2023-07-31T12:40:57;99735.41;;;18.33;100.00
32081;BME280;18593;51.426;7.030;2023-07-31T12:43:25;99730.81;;;18.33;100.00
32081;BME280;18593;51.426;7.030;2023-07-31T12:45:54;99731.34;;;18.35;100.00
32081;BME280;18593;51.426;7.030;2023-07-31T12:48:23;99717.59;;;18.32;100.00
32081;BME280;18593;51.426;7.030;2023-07-31T12:50:51;99727.31;;;18.33;100.00
32081;BME280;18593;51.426;7.030;2023-07-31T12:53:18;99737.59;;;18.31;100.00
32081;BME280;18593;51.426;7.030;2023-07-31T12:55:45;99735.16;;;18.29;100.00
32081;BME280;18593;51.426;7.030;2023-07-31T12:58:13;99734.31;;;18.34;100.00
32081;BME280;18593;51.426;7.030;2023-07-31T13:00:44;99730.25;;;18.36;100.00
32081;BME280;18593;51.426;7.030;2023-07-31T13:03:15;99724.56;;;18.38;100.00
32081;BME280;18593;51.426;7.030;2023-07-31T13:05:44;99725.09;;;18.40;100.00